createdAt,value
2022-09-12T00:05:15.265Z,74.28
2022-09-12T00:13:41.904Z,74.29
2022-09-12T00:22:04.779Z,74.24
2022-09-12T00:30:27.716Z,74.29
2022-09-12T00:38:52.007Z,74.42
2022-09-12T00:47:25.552Z,74.30
2022-09-12T00:55:52.760Z,74.30
2022-09-12T01:04:17.701Z,74.33
2022-09-12T01:12:42.551Z,74.33
2022-09-12T01:21:16.637Z,74.43
2022-09-12T01:30:01.190Z,74.47
2022-09-12T01:38:43.518Z,74.34
2022-09-12T01:47:21.702Z,74.62
2022-09-12T01:55:51.424Z,74.63
2022-09-12T02:04:34.237Z,74.48
2022-09-12T02:13:03.663Z,74.58
2022-09-12T02:21:28.893Z,74.36
2022-09-12T02:29:52.380Z,74.56
2022-09-12T02:38:26.757Z,74.45
2022-09-12T02:46:55.339Z,74.53
2022-09-12T02:55:18.796Z,74.42
2022-09-12T03:04:05.531Z,74.51
2022-09-12T03:13:18.166Z,74.50
2022-09-12T03:22:02.889Z,74.48
2022-09-12T03:30:26.839Z,74.58
2022-09-12T03:38:50.450Z,74.43
2022-09-12T03:47:13.286Z,74.68
2022-09-12T03:55:36.474Z,74.40
2022-09-12T04:03:59.470Z,74.43
2022-09-12T04:12:22.940Z,74.53
2022-09-12T04:20:45.820Z,74.60
2022-09-12T04:29:11.908Z,74.43
2022-09-12T04:37:34.856Z,74.47
2022-09-12T04:46:05.497Z,74.35
2022-09-12T04:54:28.366Z,74.47
2022-09-12T05:02:51.332Z,74.44
2022-09-12T05:11:24.710Z,74.52
2022-09-12T05:19:49.577Z,74.36
2022-09-12T05:28:12.385Z,74.61
2022-09-12T05:36:37.135Z,74.68
2022-09-12T05:45:00.028Z,74.50
2022-09-12T05:53:23.031Z,74.56
2022-09-12T06:01:46.688Z,74.51
2022-09-12T06:10:12.066Z,74.67
2022-09-12T06:18:36.237Z,74.75
2022-09-12T06:26:59.140Z,74.78
2022-09-12T06:35:22.025Z,74.80
2022-09-12T06:43:44.998Z,74.78
2022-09-12T06:52:07.805Z,74.85
2022-09-12T07:00:31.464Z,74.81
2022-09-12T07:08:54.437Z,74.96
2022-09-12T07:17:18.169Z,74.88
2022-09-12T07:25:41.212Z,74.80
2022-09-12T07:34:06.919Z,74.85
2022-09-12T07:42:29.689Z,75.13
2022-09-12T07:51:04.097Z,74.89
2022-09-12T07:59:50.903Z,75.01
2022-09-12T08:08:11.068Z,75.12
2022-09-12T08:16:35.699Z,75.21
2022-09-12T08:24:58.807Z,75.35
2022-09-12T08:33:22.377Z,75.07
2022-09-12T08:41:48.031Z,75.36
2022-09-12T08:50:11.824Z,75.36
2022-09-12T08:58:40.152Z,75.23
2022-09-12T09:07:09.212Z,75.20
2022-09-12T09:16:00.873Z,75.35
2022-09-12T09:24:48.578Z,75.39
2022-09-12T09:33:21.882Z,75.49
2022-09-12T09:41:53.699Z,75.33
2022-09-12T09:50:17.521Z,75.53
2022-09-12T09:58:40.877Z,75.73
2022-09-12T10:07:06.212Z,75.56
2022-09-12T10:15:29.636Z,75.49
2022-09-12T10:24:00.425Z,75.55
2022-09-12T10:32:39.886Z,75.57
2022-09-12T10:41:09.578Z,75.72
2022-09-12T10:49:38.432Z,75.69
2022-09-12T10:58:14.020Z,75.69
2022-09-12T11:06:46.393Z,75.59
2022-09-12T11:15:56.348Z,75.71
2022-09-12T11:24:41.214Z,75.40
2022-09-12T11:33:09.314Z,75.49
2022-09-12T11:41:37.895Z,75.36
2022-09-12T11:50:07.237Z,75.48
2022-09-12T11:58:30.083Z,75.56
2022-09-12T12:07:07.885Z,75.68
2022-09-12T12:15:33.323Z,75.70
2022-09-12T12:24:09.162Z,75.73
2022-09-12T12:32:33.172Z,75.61
2022-09-12T12:41:18.720Z,75.88
2022-09-12T12:49:54.885Z,75.97
2022-09-12T12:58:29.527Z,75.89
2022-09-12T13:07:04.608Z,75.86
2022-09-12T13:15:36.434Z,75.63
2022-09-12T13:24:16.109Z,75.80
2022-09-12T13:32:39.692Z,75.54
2022-09-12T13:41:31.749Z,75.66
2022-09-12T13:49:56.437Z,75.57
2022-09-12T13:58:23.930Z,75.44
2022-09-12T14:06:52.558Z,75.43
2022-09-12T14:15:28.776Z,75.39
2022-09-12T14:23:51.975Z,75.35
2022-09-12T14:32:23.761Z,75.48
2022-09-12T14:41:08.385Z,75.43
2022-09-12T14:49:38.205Z,75.43
2022-09-12T14:58:19.222Z,75.57
2022-09-12T15:06:42.063Z,75.25
2022-09-12T15:15:15.131Z,75.27
2022-09-12T15:23:48.622Z,75.49
2022-09-12T15:32:22.736Z,75.40
2022-09-12T15:40:54.043Z,75.25
2022-09-12T15:49:17.425Z,75.34
2022-09-12T15:57:40.882Z,75.34
2022-09-12T16:06:05.467Z,75.24
2022-09-12T16:14:28.257Z,75.30
2022-09-12T16:22:51.026Z,75.15
2022-09-12T16:31:14.802Z,75.37
2022-09-12T16:39:38.124Z,75.23
2022-09-12T16:48:01.846Z,75.30
2022-09-12T16:56:26.181Z,75.20
2022-09-12T17:04:49.124Z,75.07
2022-09-12T17:13:12.492Z,75.02
2022-09-12T17:21:35.716Z,75.21
2022-09-12T17:29:58.532Z,75.10
2022-09-12T17:38:25.348Z,75.30
2022-09-12T17:46:48.377Z,75.12
2022-09-12T17:55:14.115Z,75.08
2022-09-12T18:03:37.047Z,75.19
2022-09-12T18:12:00.035Z,75.30
2022-09-12T18:20:23.700Z,75.34
2022-09-12T18:28:46.455Z,75.23
2022-09-12T18:37:09.288Z,75.12
2022-09-12T18:45:32.273Z,75.00
2022-09-12T18:53:58.488Z,75.21
2022-09-12T19:02:21.309Z,75.18
2022-09-12T19:10:44.773Z,75.15
2022-09-12T19:19:08.341Z,75.10
2022-09-12T19:27:33.043Z,75.25
2022-09-12T19:35:55.816Z,75.19
2022-09-12T19:44:21.479Z,75.17
2022-09-12T19:52:44.268Z,75.29
2022-09-12T20:01:10.945Z,75.38
2022-09-12T20:09:34.506Z,75.12
2022-09-12T20:17:57.981Z,75.08
2022-09-12T20:26:20.862Z,74.93
2022-09-12T20:34:44.669Z,75.08
2022-09-12T20:43:07.609Z,74.92
2022-09-12T20:51:32.012Z,74.89
2022-09-12T20:59:54.996Z,74.97
2022-09-12T21:08:17.917Z,74.87
2022-09-12T21:16:40.701Z,74.89
2022-09-12T21:25:03.752Z,74.86
2022-09-12T21:33:28.210Z,74.98
2022-09-12T21:41:51.110Z,74.96
2022-09-12T21:50:14.976Z,75.21
2022-09-12T21:58:38.428Z,74.88
2022-09-12T22:07:02.220Z,74.95
2022-09-12T22:15:41.494Z,75.08
2022-09-12T22:24:23.887Z,75.25
2022-09-12T22:32:50.263Z,75.10
2022-09-12T22:41:13.284Z,75.13
2022-09-12T22:49:36.127Z,75.38
2022-09-12T22:57:59.935Z,75.34
2022-09-12T23:06:22.797Z,75.08
2022-09-12T23:14:47.215Z,75.07
2022-09-12T23:23:10.125Z,75.06
2022-09-12T23:31:35.566Z,75.16
2022-09-12T23:39:59.165Z,75.18
2022-09-12T23:48:22.227Z,75.00
2022-09-12T23:56:46.169Z,75.31
